sensor_id;sensor_type;location;lat;lon;timestamp;pressure;altitude;pressure_sealevel;temperature;humidity
36062;BME280;22123;52.412;20.970;2023-04-23T00:00:48;100445.59;;;4.39;100.00
36062;BME280;22123;52.412;20.970;2023-04-23T00:03:14;100471.91;;;4.53;100.00
36062;BME280;22123;52.412;20.970;2023-04-23T00:05:42;100438.72;;;4.37;100.00
36062;BME280;22123;52.412;20.970;2023-04-23T00:08:09;100453.75;;;4.38;100.00
36062;BME280;22123;52.412;20.970;2023-04-23T00:10:35;100437.41;;;4.31;100.00
36062;BME280;22123;52.412;20.970;2023-04-23T00:13:01;100426.56;;;4.23;100.00
36062;BME280;22123;52.412;20.970;2023-04-23T00:15:27;100434.06;;;4.29;100.00
36062;BME280;22123;52.412;20.970;2023-04-23T00:17:53;100468.53;;;4.51;100.00
36062;BME280;22123;52.412;20.970;2023-04-23T00:20:19;100447.03;;;4.43;100.00
36062;BME280;22123;52.412;20.970;2023-04-23T00:22:45;100426.44;;;4.24;100.00
36062;BME280;22123;52.412;20.970;2023-04-23T00:25:11;100441.09;;;4.40;100.00
36062;BME280;22123;52.412;20.970;2023-04-23T00:27:37;100432.91;;;4.31;100.00
36062;BME280;22123;52.412;20.970;2023-04-23T00:30:03;100439.00;;;4.33;100.00
36062;BME280;22123;52.412;20.970;2023-04-23T00:32:29;100458.53;;;4.44;100.00
36062;BME280;22123;52.412;20.970;2023-04-23T00:34:55;100441.06;;;4.30;100.00
36062;BME280;22123;52.412;20.970;2023-04-23T00:37:21;100409.56;;;4.14;100.00
36062;BME280;22123;52.412;20.970;2023-04-23T00:39:47;100425.88;;;4.21;100.00
36062;BME280;22123;52.412;20.970;2023-04-23T00:42:13;100427.44;;;4.23;100.00
36062;BME280;22123;52.412;20.970;2023-04-23T00:44:39;100426.84;;;4.20;100.00
36062;BME280;22123;52.412;20.970;2023-04-23T00:47:05;100419.38;;;4.13;100.00
36062;BME280;22123;52.412;20.970;2023-04-23T00:49:35;100417.69;;;4.12;100.00
36062;BME280;22123;52.412;20.970;2023-04-23T00:52:02;100415.16;;;4.11;100.00
36062;BME280;22123;52.412;20.970;2023-04-23T00:54:28;100430.88;;;4.14;100.00
36062;BME280;22123;52.412;20.970;2023-04-23T00:56:54;100437.63;;;4.18;100.00
36062;BME280;22123;52.412;20.970;2023-04-23T00:59:20;100450.06;;;4.29;100.00
36062;BME280;22123;52.412;20.970;2023-04-23T01:01:46;100417.94;;;4.09;100.00
36062;BME280;22123;52.412;20.970;2023-04-23T01:04:15;100443.16;;;4.26;100.00
36062;BME280;22123;52.412;20.970;2023-04-23T01:06:42;100456.78;;;4.33;100.00
36062;BME280;22123;52.412;20.970;2023-04-23T01:09:09;100398.28;;;4.00;100.00
36062;BME280;22123;52.412;20.970;2023-04-23T01:11:41;100423.75;;;4.14;100.00
36062;BME280;22123;52.412;20.970;2023-04-23T01:14:08;100425.41;;;4.15;100.00
36062;BME280;22123;52.412;20.970;2023-04-23T01:16:35;100431.47;;;4.17;100.00
36062;BME280;22123;52.412;20.970;2023-04-23T01:19:01;100449.78;;;4.32;100.00
36062;BME280;22123;52.412;20.970;2023-04-23T01:21:27;100433.13;;;4.18;100.00
36062;BME280;22123;52.412;20.970;2023-04-23T01:23:54;100429.63;;;4.18;100.00
36062;BME280;22123;52.412;20.970;2023-04-23T01:26:22;100444.84;;;4.27;100.00
36062;BME280;22123;52.412;20.970;2023-04-23T01:28:48;100388.28;;;3.93;100.00
36062;BME280;22123;52.412;20.970;2023-04-23T01:31:15;100443.03;;;4.28;100.00
36062;BME280;22123;52.412;20.970;2023-04-23T01:33:43;100461.28;;;4.32;100.00
36062;BME280;22123;52.412;20.970;2023-04-23T01:36:09;100442.13;;;4.17;100.00
36062;BME280;22123;52.412;20.970;2023-04-23T01:38:37;100425.50;;;4.04;100.00
36062;BME280;22123;52.412;20.970;2023-04-23T01:41:03;100426.34;;;4.05;100.00
36062;BME280;22123;52.412;20.970;2023-04-23T01:43:30;100459.97;;;4.27;100.00
36062;BME280;22123;52.412;20.970;2023-04-23T01:45:57;100437.91;;;4.15;100.00
36062;BME280;22123;52.412;20.970;2023-04-23T01:48:23;100427.16;;;4.05;100.00
36062;BME280;22123;52.412;20.970;2023-04-23T01:50:49;100464.59;;;4.25;100.00
36062;BME280;22123;52.412;20.970;2023-04-23T01:53:15;100405.09;;;3.93;100.00
36062;BME280;22123;52.412;20.970;2023-04-23T01:55:44;100437.31;;;4.11;100.00
36062;BME280;22123;52.412;20.970;2023-04-23T01:58:10;100424.63;;;4.04;100.00
36062;BME280;22123;52.412;20.970;2023-04-23T02:00:36;100433.38;;;4.06;100.00
36062;BME280;22123;52.412;20.970;2023-04-23T02:03:02;100421.97;;;4.04;100.00
36062;BME280;22123;52.412;20.970;2023-04-23T02:05:28;100451.69;;;4.20;100.00
36062;BME280;22123;52.412;20.970;2023-04-23T02:07:54;100460.94;;;4.26;100.00
36062;BME280;22123;52.412;20.970;2023-04-23T02:10:20;100417.03;;;3.99;100.00
36062;BME280;22123;52.412;20.970;2023-04-23T02:12:46;100461.94;;;4.25;100.00
36062;BME280;22123;52.412;20.970;2023-04-23T02:15:13;100430.56;;;4.07;100.00
36062;BME280;22123;52.412;20.970;2023-04-23T02:17:39;100427.44;;;4.02;100.00
36062;BME280;22123;52.412;20.970;2023-04-23T02:20:07;100445.75;;;4.16;100.00
36062;BME280;22123;52.412;20.970;2023-04-23T02:22:33;100415.34;;;3.98;100.00
36062;BME280;22123;52.412;20.970;2023-04-23T02:24:59;100425.03;;;3.99;100.00
36062;BME280;22123;52.412;20.970;2023-04-23T02:27:25;100427.44;;;4.02;100.00
36062;BME280;22123;52.412;20.970;2023-04-23T02:29:51;100422.38;;;3.99;100.00
36062;BME280;22123;52.412;20.970;2023-04-23T02:32:17;100459.06;;;4.16;100.00
36062;BME280;22123;52.412;20.970;2023-04-23T02:34:43;100411.03;;;3.97;100.00
36062;BME280;22123;52.412;20.970;2023-04-23T02:37:09;100449.84;;;4.21;100.00
36062;BME280;22123;52.412;20.970;2023-04-23T02:39:35;100411.84;;;3.97;100.00
36062;BME280;22123;52.412;20.970;2023-04-23T02:42:00;100434.66;;;4.11;100.00
36062;BME280;22123;52.412;20.970;2023-04-23T02:44:26;100414.66;;;3.96;100.00
36062;BME280;22123;52.412;20.970;2023-04-23T02:46:52;100418.16;;;3.96;100.00
36062;BME280;22123;52.412;20.970;2023-04-23T02:49:18;100425.31;;;3.96;100.00
36062;BME280;22123;52.412;20.970;2023-04-23T02:51:44;100377.88;;;3.69;100.00
36062;BME280;22123;52.412;20.970;2023-04-23T02:54:10;100404.53;;;3.90;100.00
36062;BME280;22123;52.412;20.970;2023-04-23T02:56:36;100430.22;;;4.00;100.00
36062;BME280;22123;52.412;20.970;2023-04-23T02:59:02;100423.59;;;3.95;100.00
36062;BME280;22123;52.412;20.970;2023-04-23T03:01:28;100427.97;;;3.96;100.00
36062;BME280;22123;52.412;20.970;2023-04-23T03:03:54;100422.91;;;3.93;100.00
36062;BME280;22123;52.412;20.970;2023-04-23T03:06:20;100436.16;;;4.04;100.00
36062;BME280;22123;52.412;20.970;2023-04-23T03:08:46;100439.06;;;4.01;100.00
36062;BME280;22123;52.412;20.970;2023-04-23T03:11:13;100435.00;;;3.97;100.00
36062;BME280;22123;52.412;20.970;2023-04-23T03:13:39;100453.41;;;4.10;100.00
36062;BME280;22123;52.412;20.970;2023-04-23T03:16:05;100457.22;;;4.07;100.00
36062;BME280;22123;52.412;20.970;2023-04-23T03:18:31;100414.72;;;3.85;100.00
36062;BME280;22123;52.412;20.970;2023-04-23T03:20:57;100435.22;;;3.94;100.00
36062;BME280;22123;52.412;20.970;2023-04-23T03:23:23;100433.28;;;3.96;100.00
36062;BME280;22123;52.412;20.970;2023-04-23T03:25:49;100419.19;;;3.84;100.00
36062;BME280;22123;52.412;20.970;2023-04-23T03:28:15;100444.25;;;4.03;100.00
36062;BME280;22123;52.412;20.970;2023-04-23T03:30:41;100401.19;;;3.76;100.00
36062;BME280;22123;52.412;20.970;2023-04-23T03:33:07;100425.69;;;3.91;100.00
36062;BME280;22123;52.412;20.970;2023-04-23T03:35:33;100432.47;;;3.95;100.00
36062;BME280;22123;52.412;20.970;2023-04-23T03:37:59;100442.25;;;3.95;100.00
36062;BME280;22123;52.412;20.970;2023-04-23T03:40:24;100412.75;;;3.87;100.00
36062;BME280;22123;52.412;20.970;2023-04-23T03:42:50;100412.38;;;3.91;100.00
36062;BME280;22123;52.412;20.970;2023-04-23T03:45:16;100409.13;;;3.88;100.00
36062;BME280;22123;52.412;20.970;2023-04-23T03:47:42;100417.84;;;3.90;100.00
36062;BME280;22123;52.412;20.970;2023-04-23T03:50:08;100430.22;;;4.00;100.00
36062;BME280;22123;52.412;20.970;2023-04-23T03:52:34;100407.06;;;3.91;100.00
36062;BME280;22123;52.412;20.970;2023-04-23T03:55:01;100412.13;;;3.94;100.00
36062;BME280;22123;52.412;20.970;2023-04-23T03:57:27;100400.03;;;3.90;100.00
36062;BME280;22123;52.412;20.970;2023-04-23T03:59:52;100415.09;;;4.01;100.00
36062;BME280;22123;52.412;20.970;2023-04-23T04:02:19;100392.50;;;3.95;100.00
36062;BME280;22123;52.412;20.970;2023-04-23T04:04:44;100416.13;;;4.10;100.00
36062;BME280;22123;52.412;20.970;2023-04-23T04:07:11;100443.34;;;4.34;100.00
36062;BME280;22123;52.412;20.970;2023-04-23T04:09:37;100408.78;;;4.23;100.00
36062;BME280;22123;52.412;20.970;2023-04-23T04:12:04;100421.75;;;4.38;100.00
36062;BME280;22123;52.412;20.970;2023-04-23T04:14:30;100419.09;;;4.47;100.00
36062;BME280;22123;52.412;20.970;2023-04-23T04:16:56;100420.41;;;4.53;100.00
36062;BME280;22123;52.412;20.970;2023-04-23T04:19:22;100420.72;;;4.60;100.00
36062;BME280;22123;52.412;20.970;2023-04-23T04:21:48;100416.94;;;4.72;100.00
36062;BME280;22123;52.412;20.970;2023-04-23T04:24:14;100408.94;;;4.72;100.00
36062;BME280;22123;52.412;20.970;2023-04-23T04:26:40;100424.75;;;4.95;100.00
36062;BME280;22123;52.412;20.970;2023-04-23T04:29:06;100405.09;;;4.96;100.00
36062;BME280;22123;52.412;20.970;2023-04-23T04:31:32;100403.56;;;5.03;100.00
36062;BME280;22123;52.412;20.970;2023-04-23T04:33:58;100412.19;;;5.26;100.00
36062;BME280;22123;52.412;20.970;2023-04-23T04:36:24;100431.88;;;5.45;100.00
36062;BME280;22123;52.412;20.970;2023-04-23T04:38:50;100422.84;;;5.55;100.00
36062;BME280;22123;52.412;20.970;2023-04-23T04:41:16;100425.94;;;5.70;100.00
36062;BME280;22123;52.412;20.970;2023-04-23T04:43:42;100402.75;;;5.71;100.00
36062;BME280;22123;52.412;20.970;2023-04-23T04:46:08;100415.94;;;5.92;100.00
36062;BME280;22123;52.412;20.970;2023-04-23T04:48:34;100413.28;;;6.02;100.00
36062;BME280;22123;52.412;20.970;2023-04-23T04:51:00;100430.50;;;6.27;100.00
36062;BME280;22123;52.412;20.970;2023-04-23T04:53:26;100381.50;;;6.08;100.00
36062;BME280;22123;52.412;20.970;2023-04-23T04:55:52;100437.06;;;6.52;100.00
36062;BME280;22123;52.412;20.970;2023-04-23T04:58:18;100432.50;;;6.63;100.00
36062;BME280;22123;52.412;20.970;2023-04-23T05:00:43;100408.31;;;6.54;100.00
36062;BME280;22123;52.412;20.970;2023-04-23T05:03:09;100445.78;;;6.82;100.00
36062;BME280;22123;52.412;20.970;2023-04-23T05:05:35;100371.47;;;6.48;100.00
36062;BME280;22123;52.412;20.970;2023-04-23T05:08:01;100429.53;;;6.93;100.00
36062;BME280;22123;52.412;20.970;2023-04-23T05:10:28;100387.94;;;6.81;100.00
36062;BME280;22123;52.412;20.970;2023-04-23T05:12:57;100401.63;;;6.96;100.00
36062;BME280;22123;52.412;20.970;2023-04-23T05:15:23;100406.94;;;7.06;100.00
36062;BME280;22123;52.412;20.970;2023-04-23T05:17:48;100396.59;;;7.11;100.00
36062;BME280;22123;52.412;20.970;2023-04-23T05:20:14;100407.13;;;7.40;100.00
36062;BME280;22123;52.412;20.970;2023-04-23T05:22:41;100410.56;;;7.51;100.00
36062;BME280;22123;52.412;20.970;2023-04-23T05:25:08;100393.56;;;7.60;100.00
36062;BME280;22123;52.412;20.970;2023-04-23T05:27:34;100422.25;;;7.86;100.00
36062;BME280;22123;52.412;20.970;2023-04-23T05:30:04;100407.06;;;7.94;100.00
36062;BME280;22123;52.412;20.970;2023-04-23T05:32:33;100405.59;;;8.00;100.00
36062;BME280;22123;52.412;20.970;2023-04-23T05:34:59;100420.31;;;8.22;100.00
36062;BME280;22123;52.412;20.970;2023-04-23T05:37:25;100397.28;;;8.11;100.00
36062;BME280;22123;52.412;20.970;2023-04-23T05:39:51;100396.06;;;8.32;100.00
36062;BME280;22123;52.412;20.970;2023-04-23T05:42:17;100401.53;;;8.48;100.00
36062;BME280;22123;52.412;20.970;2023-04-23T05:44:43;100379.75;;;8.51;100.00
36062;BME280;22123;52.412;20.970;2023-04-23T05:47:10;100409.25;;;8.78;100.00
36062;BME280;22123;52.412;20.970;2023-04-23T05:49:36;100420.91;;;9.03;100.00
36062;BME280;22123;52.412;20.970;2023-04-23T05:52:02;100422.63;;;9.20;100.00
36062;BME280;22123;52.412;20.970;2023-04-23T05:54:28;100408.03;;;9.23;100.00
36062;BME280;22123;52.412;20.970;2023-04-23T05:56:54;100416.13;;;9.48;100.00
36062;BME280;22123;52.412;20.970;2023-04-23T05:59:19;100392.09;;;9.46;100.00
36062;BME280;22123;52.412;20.970;2023-04-23T06:01:45;100407.72;;;9.59;100.00
36062;BME280;22123;52.412;20.970;2023-04-23T06:04:12;100399.16;;;9.64;100.00
36062;BME280;22123;52.412;20.970;2023-04-23T06:06:38;100393.13;;;9.78;100.00
36062;BME280;22123;52.412;20.970;2023-04-23T06:09:04;100346.22;;;9.64;100.00
36062;BME280;22123;52.412;20.970;2023-04-23T06:11:30;100364.38;;;9.95;100.00
36062;BME280;22123;52.412;20.970;2023-04-23T06:13:57;100407.50;;;10.35;100.00
36062;BME280;22123;52.412;20.970;2023-04-23T06:16:23;100372.03;;;10.23;100.00
36062;BME280;22123;52.412;20.970;2023-04-23T06:18:49;100395.38;;;10.47;100.00
36062;BME280;22123;52.412;20.970;2023-04-23T06:21:15;100360.22;;;10.32;100.00
36062;BME280;22123;52.412;20.970;2023-04-23T06:23:41;100400.88;;;10.62;100.00
36062;BME280;22123;52.412;20.970;2023-04-23T06:26:07;100390.72;;;10.72;100.00
36062;BME280;22123;52.412;20.970;2023-04-23T06:28:33;100358.72;;;10.77;100.00
36062;BME280;22123;52.412;20.970;2023-04-23T06:30:59;100415.88;;;11.27;100.00
36062;BME280;22123;52.412;20.970;2023-04-23T06:33:24;100398.28;;;11.40;100.00
36062;BME280;22123;52.412;20.970;2023-04-23T06:35:50;100380.69;;;11.67;100.00
36062;BME280;22123;52.412;20.970;2023-04-23T06:38:16;100364.25;;;12.00;100.00
36062;BME280;22123;52.412;20.970;2023-04-23T06:40:42;100331.97;;;12.07;100.00
36062;BME280;22123;52.412;20.970;2023-04-23T06:43:08;100362.03;;;12.33;100.00
36062;BME280;22123;52.412;20.970;2023-04-23T06:45:34;100406.53;;;12.52;100.00
36062;BME280;22123;52.412;20.970;2023-04-23T06:48:00;100414.72;;;12.59;100.00
36062;BME280;22123;52.412;20.970;2023-04-23T06:50:26;100403.72;;;12.61;100.00
36062;BME280;22123;52.412;20.970;2023-04-23T06:52:52;100403.09;;;12.59;100.00
36062;BME280;22123;52.412;20.970;2023-04-23T06:55:18;100347.41;;;12.28;100.00
36062;BME280;22123;52.412;20.970;2023-04-23T06:57:44;100392.94;;;12.61;100.00
36062;BME280;22123;52.412;20.970;2023-04-23T07:00:10;100387.50;;;12.76;100.00
36062;BME280;22123;52.412;20.970;2023-04-23T07:02:36;100344.03;;;12.70;100.00
36062;BME280;22123;52.412;20.970;2023-04-23T07:05:02;100374.91;;;12.98;100.00
36062;BME280;22123;52.412;20.970;2023-04-23T07:07:28;100395.38;;;13.44;100.00
36062;BME280;22123;52.412;20.970;2023-04-23T07:09:54;100362.81;;;13.52;100.00
36062;BME280;22123;52.412;20.970;2023-04-23T07:12:20;100380.22;;;13.93;100.00
36062;BME280;22123;52.412;20.970;2023-04-23T07:14:46;100357.69;;;14.14;100.00
36062;BME280;22123;52.412;20.970;2023-04-23T07:17:11;100364.78;;;14.56;100.00
36062;BME280;22123;52.412;20.970;2023-04-23T07:19:37;100384.53;;;14.85;100.00
36062;BME280;22123;52.412;20.970;2023-04-23T07:22:03;100338.25;;;14.87;100.00
36062;BME280;22123;52.412;20.970;2023-04-23T07:24:29;100374.63;;;15.19;100.00
36062;BME280;22123;52.412;20.970;2023-04-23T07:26:55;100354.81;;;15.32;100.00
36062;BME280;22123;52.412;20.970;2023-04-23T07:29:21;100360.72;;;15.69;100.00
36062;BME280;22123;52.412;20.970;2023-04-23T07:31:47;100343.41;;;15.84;100.00
36062;BME280;22123;52.412;20.970;2023-04-23T07:34:13;100388.03;;;16.41;100.00
36062;BME280;22123;52.412;20.970;2023-04-23T07:36:38;100376.47;;;16.66;100.00
36062;BME280;22123;52.412;20.970;2023-04-23T07:39:05;100340.69;;;16.76;100.00
36062;BME280;22123;52.412;20.970;2023-04-23T07:41:31;100346.19;;;17.08;100.00
36062;BME280;22123;52.412;20.970;2023-04-23T07:43:57;100342.59;;;17.46;100.00
36062;BME280;22123;52.412;20.970;2023-04-23T07:46:23;100366.50;;;17.94;100.00
36062;BME280;22123;52.412;20.970;2023-04-23T07:48:49;100336.00;;;18.11;100.00
36062;BME280;22123;52.412;20.970;2023-04-23T07:51:15;100331.72;;;18.70;100.00
36062;BME280;22123;52.412;20.970;2023-04-23T07:53:41;100319.25;;;19.66;100.00
36062;BME280;22123;52.412;20.970;2023-04-23T07:56:07;100335.78;;;21.11;100.00
36062;BME280;22123;52.412;20.970;2023-04-23T07:58:32;100329.53;;;23.01;82.47
36062;BME280;22123;52.412;20.970;2023-04-23T08:00:58;100297.31;;;25.21;54.43
36062;BME280;22123;52.412;20.970;2023-04-23T08:03:24;100301.28;;;27.76;37.96
36062;BME280;22123;52.412;20.970;2023-04-23T08:05:50;100342.34;;;30.55;31.24
36062;BME280;22123;52.412;20.970;2023-04-23T08:08:16;100328.91;;;32.52;27.98
36062;BME280;22123;52.412;20.970;2023-04-23T08:10:42;100336.75;;;34.07;25.57
36062;BME280;22123;52.412;20.970;2023-04-23T08:13:08;100332.28;;;35.05;23.66
36062;BME280;22123;52.412;20.970;2023-04-23T08:15:34;100338.78;;;36.55;22.52
36062;BME280;22123;52.412;20.970;2023-04-23T08:17:59;100361.34;;;37.81;21.84
36062;BME280;22123;52.412;20.970;2023-04-23T08:20:25;100328.88;;;38.63;19.17
36062;BME280;22123;52.412;20.970;2023-04-23T08:22:51;100333.03;;;39.24;19.12
36062;BME280;22123;52.412;20.970;2023-04-23T08:25:17;100311.28;;;39.21;15.88
36062;BME280;22123;52.412;20.970;2023-04-23T08:27:43;100336.94;;;38.65;16.93
36062;BME280;22123;52.412;20.970;2023-04-23T08:30:09;100342.25;;;37.86;17.93
36062;BME280;22123;52.412;20.970;2023-04-23T08:32:35;100324.16;;;36.86;18.56
36062;BME280;22123;52.412;20.970;2023-04-23T08:35:01;100346.63;;;36.37;19.91
36062;BME280;22123;52.412;20.970;2023-04-23T08:37:26;100317.13;;;36.06;19.76
36062;BME280;22123;52.412;20.970;2023-04-23T08:39:52;100293.56;;;35.82;17.38
36062;BME280;22123;52.412;20.970;2023-04-23T08:42:41;100311.25;;;35.20;20.11
36062;BME280;22123;52.412;20.970;2023-04-23T08:45:07;100302.56;;;35.00;19.98
36062;BME280;22123;52.412;20.970;2023-04-23T08:47:33;100340.28;;;34.34;20.26
36062;BME280;22123;52.412;20.970;2023-04-23T08:50:00;100336.84;;;32.93;22.60
36062;BME280;22123;52.412;20.970;2023-04-23T08:52:32;100320.06;;;31.55;22.39
36062;BME280;22123;52.412;20.970;2023-04-23T08:55:03;100333.47;;;30.80;24.15
36062;BME280;22123;52.412;20.970;2023-04-23T08:57:32;100305.84;;;30.20;25.18
36062;BME280;22123;52.412;20.970;2023-04-23T08:59:59;100299.41;;;29.77;26.30
36062;BME280;22123;52.412;20.970;2023-04-23T09:02:27;100308.88;;;29.43;26.44
36062;BME280;22123;52.412;20.970;2023-04-23T09:04:53;100301.63;;;28.90;26.91
36062;BME280;22123;52.412;20.970;2023-04-23T09:07:19;100301.75;;;28.13;29.49
36062;BME280;22123;52.412;20.970;2023-04-23T09:09:45;100306.75;;;27.52;29.27
36062;BME280;22123;52.412;20.970;2023-04-23T09:12:11;100304.50;;;27.19;30.16
36062;BME280;22123;52.412;20.970;2023-04-23T09:14:37;100300.69;;;26.60;30.17
36062;BME280;22123;52.412;20.970;2023-04-23T09:17:03;100316.63;;;25.88;30.64
36062;BME280;22123;52.412;20.970;2023-04-23T09:19:29;100300.94;;;25.42;31.92
36062;BME280;22123;52.412;20.970;2023-04-23T09:21:57;100274.72;;;24.93;30.14
36062;BME280;22123;52.412;20.970;2023-04-23T09:24:24;100286.41;;;24.57;35.55
36062;BME280;22123;52.412;20.970;2023-04-23T09:26:51;100317.34;;;24.80;34.95
36062;BME280;22123;52.412;20.970;2023-04-23T09:29:18;100313.03;;;25.30;32.74
36062;BME280;22123;52.412;20.970;2023-04-23T09:31:49;100292.09;;;25.34;34.77
36062;BME280;22123;52.412;20.970;2023-04-23T09:34:23;100313.34;;;25.75;30.35
36062;BME280;22123;52.412;20.970;2023-04-23T09:36:51;100295.41;;;25.83;34.38
36062;BME280;22123;52.412;20.970;2023-04-23T09:39:20;100260.94;;;25.85;30.96
36062;BME280;22123;52.412;20.970;2023-04-23T09:41:46;100261.72;;;25.96;31.51
36062;BME280;22123;52.412;20.970;2023-04-23T09:44:17;100282.69;;;26.13;29.25
36062;BME280;22123;52.412;20.970;2023-04-23T09:46:43;100263.97;;;25.79;33.09
36062;BME280;22123;52.412;20.970;2023-04-23T09:49:11;100268.66;;;25.78;32.58
36062;BME280;22123;52.412;20.970;2023-04-23T09:51:46;100241.66;;;25.65;30.29
36062;BME280;22123;52.412;20.970;2023-04-23T09:54:22;100274.69;;;25.91;30.74
36062;BME280;22123;52.412;20.970;2023-04-23T09:56:50;100266.19;;;25.77;33.42
36062;BME280;22123;52.412;20.970;2023-04-23T09:59:20;100245.75;;;25.88;32.07
36062;BME280;22123;52.412;20.970;2023-04-23T10:01:46;100224.47;;;26.09;29.39
36062;BME280;22123;52.412;20.970;2023-04-23T10:04:20;100250.53;;;26.48;33.64
36062;BME280;22123;52.412;20.970;2023-04-23T10:06:54;100190.16;;;26.81;29.31
36062;BME280;22123;52.412;20.970;2023-04-23T10:09:20;100262.13;;;27.93;32.68
36062;BME280;22123;52.412;20.970;2023-04-23T10:11:46;100247.44;;;28.65;26.18
36062;BME280;22123;52.412;20.970;2023-04-23T10:14:12;100243.00;;;28.83;26.31
36062;BME280;22123;52.412;20.970;2023-04-23T10:16:38;100234.16;;;29.00;28.18
36062;BME280;22123;52.412;20.970;2023-04-23T10:19:06;100231.59;;;29.70;26.22
36062;BME280;22123;52.412;20.970;2023-04-23T10:21:34;100216.63;;;29.98;27.82
36062;BME280;22123;52.412;20.970;2023-04-23T10:24:01;100240.47;;;31.14;25.32
36062;BME280;22123;52.412;20.970;2023-04-23T10:26:28;100236.97;;;31.94;25.37
36062;BME280;22123;52.412;20.970;2023-04-23T10:28:56;100223.22;;;33.34;21.53
36062;BME280;22123;52.412;20.970;2023-04-23T10:31:24;100219.63;;;34.41;19.60
36062;BME280;22123;52.412;20.970;2023-04-23T10:33:50;100218.41;;;34.93;21.29
36062;BME280;22123;52.412;20.970;2023-04-23T10:36:16;100215.72;;;35.63;18.92
36062;BME280;22123;52.412;20.970;2023-04-23T10:38:43;100223.91;;;36.30;20.40
36062;BME280;22123;52.412;20.970;2023-04-23T10:41:10;100215.69;;;36.91;20.49
36062;BME280;22123;52.412;20.970;2023-04-23T10:43:37;100206.13;;;37.07;20.24
36062;BME280;22123;52.412;20.970;2023-04-23T10:46:03;100208.81;;;37.32;18.84
36062;BME280;22123;52.412;20.970;2023-04-23T10:48:29;100208.38;;;37.02;19.25
36062;BME280;22123;52.412;20.970;2023-04-23T10:50:58;100216.41;;;36.22;20.06
36062;BME280;22123;52.412;20.970;2023-04-23T10:53:24;100225.31;;;35.41;21.10
36062;BME280;22123;52.412;20.970;2023-04-23T10:55:49;100201.22;;;34.40;21.38
36062;BME280;22123;52.412;20.970;2023-04-23T10:58:46;100196.31;;;34.79;21.99
36062;BME280;22123;52.412;20.970;2023-04-23T11:01:12;100187.25;;;35.15;22.79
36062;BME280;22123;52.412;20.970;2023-04-23T11:03:39;100195.50;;;35.33;21.89
36062;BME280;22123;52.412;20.970;2023-04-23T11:06:05;100204.72;;;35.46;20.69
36062;BME280;22123;52.412;20.970;2023-04-23T11:08:34;100202.75;;;35.25;20.47
36062;BME280;22123;52.412;20.970;2023-04-23T11:11:01;100196.31;;;34.79;23.02
36062;BME280;22123;52.412;20.970;2023-04-23T11:13:30;100170.13;;;34.20;21.20
36062;BME280;22123;52.412;20.970;2023-04-23T11:19:00;100196.28;;;33.21;24.23
36062;BME280;22123;52.412;20.970;2023-04-23T11:22:03;100200.63;;;32.74;25.15
36062;BME280;22123;52.412;20.970;2023-04-23T11:24:34;100202.56;;;32.65;23.07
36062;BME280;22123;52.412;20.970;2023-04-23T11:27:00;100188.91;;;32.11;25.35
36062;BME280;22123;52.412;20.970;2023-04-23T11:29:29;100165.03;;;32.28;25.12
36062;BME280;22123;52.412;20.970;2023-04-23T11:31:55;100186.53;;;32.88;25.19
36062;BME280;22123;52.412;20.970;2023-04-23T11:34:21;100168.13;;;33.05;24.42
36062;BME280;22123;52.412;20.970;2023-04-23T11:36:51;100185.81;;;33.09;23.66
36062;BME280;22123;52.412;20.970;2023-04-23T11:39:17;100184.06;;;32.78;22.71
36062;BME280;22123;52.412;20.970;2023-04-23T11:41:43;100176.19;;;32.45;22.25
36062;BME280;22123;52.412;20.970;2023-04-23T11:44:09;100164.50;;;32.17;21.88
36062;BME280;22123;52.412;20.970;2023-04-23T11:46:35;100168.72;;;32.05;24.21
36062;BME280;22123;52.412;20.970;2023-04-23T11:49:01;100150.44;;;31.64;27.32
36062;BME280;22123;52.412;20.970;2023-04-23T11:51:27;100154.28;;;31.54;26.13
36062;BME280;22123;52.412;20.970;2023-04-23T11:53:53;100154.38;;;31.32;24.01
36062;BME280;22123;52.412;20.970;2023-04-23T11:56:19;100177.19;;;30.97;28.80
36062;BME280;22123;52.412;20.970;2023-04-23T11:58:45;100124.13;;;30.40;25.47
36062;BME280;22123;52.412;20.970;2023-04-23T12:01:11;100146.91;;;30.14;26.99
36062;BME280;22123;52.412;20.970;2023-04-23T12:03:37;100139.44;;;29.73;28.99
36062;BME280;22123;52.412;20.970;2023-04-23T12:06:03;100141.78;;;29.52;26.06
36062;BME280;22123;52.412;20.970;2023-04-23T12:08:33;100153.41;;;29.07;27.74
36062;BME280;22123;52.412;20.970;2023-04-23T12:11:00;100129.84;;;28.19;29.89
36062;BME280;22123;52.412;20.970;2023-04-23T12:13:28;100136.41;;;28.04;29.03
36062;BME280;22123;52.412;20.970;2023-04-23T12:15:59;100172.44;;;27.99;30.17
36062;BME280;22123;52.412;20.970;2023-04-23T12:18:33;100150.13;;;27.66;27.87
36062;BME280;22123;52.412;20.970;2023-04-23T12:21:08;100161.41;;;27.46;31.42
36062;BME280;22123;52.412;20.970;2023-04-23T12:23:35;100116.31;;;27.21;27.61
36062;BME280;22123;52.412;20.970;2023-04-23T12:26:01;100153.66;;;27.18;31.78
36062;BME280;22123;52.412;20.970;2023-04-23T12:28:28;100143.34;;;27.00;28.69
36062;BME280;22123;52.412;20.970;2023-04-23T12:30:58;100133.03;;;26.76;31.18
36062;BME280;22123;52.412;20.970;2023-04-23T12:33:27;100129.63;;;26.50;32.06
36062;BME280;22123;52.412;20.970;2023-04-23T12:35:53;100130.78;;;26.44;31.63
36062;BME280;22123;52.412;20.970;2023-04-23T12:38:24;100119.09;;;26.17;30.98